sim
Sign-in with your pilot id or email,
or register
Callsign
Passwort

Schedule Details

Flight Number: OEO6746
Departure: Munich Airport (EDDM) at 09:20
Arrival: Charlotte Douglas International Airport (KCLT) at 20:05

Weather Information
Getting current METAR information for EDDM 190950Z 06006KT 020V110 CAVOK 16/10 Q1020 NOSIG
Getting current METAR information for KCLT 190952Z 03006KT 10SM BKN060 OVC250 18/11 A3015 RMK AO2 SLP202 T01780111 $

Schedule Frequency

Route Map